Time;durP1;ratioP1;P1;durP2;ratioP2;P2;SDS_P1;SDS_P2;PMS_P1;PMS_P2;Temp;Humidity;BMP_temperature;BMP_pressure;BME280_temperature;BME280_humidity;BME280_pressure;Samples;Min_cycle;Max_cycle;Signal;HPM_P1;HPM_P2
2023/11/21 00:00:21;;;;;;;0.40;0.40;;;7.50;99.90;;;;;;5057102;28;20300;-80
2023/11/21 00:02:49;;;;;;;0.40;0.40;;;7.60;99.90;;;;;;5056767;28;20199;-80
2023/11/21 00:05:17;;;;;;;0.45;0.40;;;7.60;99.90;;;;;;5048476;28;20206;-80
2023/11/21 00:07:44;;;;;;;0.40;0.40;;;7.70;99.90;;;;;;5049364;28;20717;-81
2023/11/21 00:10:14;;;;;;;0.50;0.40;;;7.80;99.90;;;;;;5044570;28;20203;-80
2023/11/21 00:12:41;;;;;;;0.40;0.40;;;7.80;99.90;;;;;;5044796;28;20297;-80
2023/11/21 00:15:10;;;;;;;0.45;0.40;;;7.90;99.90;;;;;;5044224;28;20231;-80
2023/11/21 00:17:37;;;;;;;0.40;0.40;;;8.00;99.90;;;;;;5036365;28;20224;-81
2023/11/21 00:20:07;;;;;;;0.40;0.40;;;8.10;99.90;;;;;;5044592;28;20200;-78
2023/11/21 00:22:34;;;;;;;0.40;0.40;;;8.10;99.90;;;;;;5049781;28;20199;-80
2023/11/21 00:25:01;;;;;;;0.40;0.40;;;8.20;99.90;;;;;;5047181;28;20199;-80
2023/11/21 00:27:27;;;;;;;0.40;0.40;;;8.20;99.90;;;;;;5044089;28;20212;-79
2023/11/21 00:29:54;;;;;;;0.40;0.40;;;8.30;99.90;;;;;;5043710;28;20200;-81
2023/11/21 00:32:21;;;;;;;0.40;0.40;;;8.30;99.90;;;;;;5044443;28;20215;-81
2023/11/21 00:34:47;;;;;;;0.40;0.40;;;8.40;99.90;;;;;;5044622;28;20203;-81
2023/11/21 00:37:16;;;;;;;0.40;0.40;;;8.40;99.90;;;;;;5054240;28;20211;-81
2023/11/21 00:39:43;;;;;;;0.95;0.95;;;8.40;99.90;;;;;;5055695;28;20209;-80
2023/11/21 00:42:10;;;;;;;0.40;0.40;;;8.40;99.90;;;;;;5046321;28;20196;-80
2023/11/21 00:44:38;;;;;;;0.40;0.40;;;8.50;99.90;;;;;;5041594;28;20199;-81
2023/11/21 00:47:05;;;;;;;0.40;0.40;;;8.50;99.90;;;;;;5038555;28;20222;-80
2023/11/21 00:49:32;;;;;;;0.50;0.43;;;8.60;99.90;;;;;;5048339;28;20268;-81
2023/11/21 00:51:59;;;;;;;0.40;0.40;;;8.60;99.90;;;;;;5055979;28;20287;-81
2023/11/21 00:54:28;;;;;;;0.45;0.40;;;8.60;99.90;;;;;;5036550;28;20440;-80
2023/11/21 00:56:55;;;;;;;0.50;0.40;;;8.60;99.90;;;;;;5035697;28;20584;-81
2023/11/21 00:59:22;;;;;;;0.50;0.40;;;8.60;99.90;;;;;;5046984;28;20579;-80
2023/11/21 01:01:49;;;;;;;0.50;0.40;;;8.60;99.90;;;;;;5056341;28;20191;-81
2023/11/21 01:04:16;;;;;;;0.70;0.68;;;8.60;99.90;;;;;;5038367;28;20579;-80
2023/11/21 01:06:43;;;;;;;0.45;0.40;;;8.60;99.90;;;;;;5050614;28;20261;-80
2023/11/21 01:09:10;;;;;;;0.45;0.40;;;8.50;99.90;;;;;;5055429;28;20195;-80
2023/11/21 01:11:38;;;;;;;0.95;0.95;;;8.40;99.90;;;;;;5035863;28;20200;-80
2023/11/21 01:14:06;;;;;;;0.50;0.40;;;8.40;99.90;;;;;;5045270;28;20195;-80
2023/11/21 01:16:33;;;;;;;0.75;0.75;;;8.40;99.90;;;;;;5044146;28;20234;-81
2023/11/21 01:19:01;;;;;;;0.50;0.40;;;8.30;99.90;;;;;;5044521;28;20195;-81
2023/11/21 01:21:28;;;;;;;0.40;0.40;;;8.40;99.90;;;;;;5045461;28;20191;-80
2023/11/21 01:23:56;;;;;;;0.50;0.40;;;8.40;99.90;;;;;;5043982;28;20195;-81
2023/11/21 01:26:22;;;;;;;0.40;0.40;;;8.30;99.90;;;;;;5048179;28;20214;-80
2023/11/21 01:28:50;;;;;;;0.40;0.40;;;8.40;99.90;;;;;;5057421;28;20218;-81
2023/11/21 01:31:17;;;;;;;0.40;0.40;;;8.40;99.90;;;;;;5057014;28;20199;-81
2023/11/21 01:33:45;;;;;;;0.45;0.40;;;8.40;99.90;;;;;;5049803;28;20651;-80
2023/11/21 01:36:12;;;;;;;0.40;0.40;;;8.40;99.90;;;;;;5057535;28;20195;-79
2023/11/21 01:38:38;;;;;;;0.47;0.40;;;8.40;99.90;;;;;;5053294;28;20188;-80
2023/11/21 01:41:06;;;;;;;0.40;0.40;;;8.50;99.90;;;;;;5037148;28;20200;-79
2023/11/21 01:43:34;;;;;;;0.40;0.40;;;8.50;99.90;;;;;;5044571;28;20234;-81
2023/11/21 01:46:02;;;;;;;0.40;0.40;;;8.50;99.90;;;;;;5051591;28;20203;-80
2023/11/21 01:48:29;;;;;;;1.63;0.98;;;8.50;99.90;;;;;;5043219;28;20222;-81
2023/11/21 01:50:56;;;;;;;0.40;0.40;;;8.50;99.90;;;;;;5050513;28;20195;-81
2023/11/21 01:53:25;;;;;;;0.50;0.40;;;8.60;99.90;;;;;;5037906;28;20206;-81
2023/11/21 01:55:53;;;;;;;0.57;0.57;;;8.60;99.90;;;;;;5054577;28;20224;-80
2023/11/21 01:58:21;;;;;;;0.40;0.40;;;8.60;99.90;;;;;;5036978;28;20220;-80
2023/11/21 02:00:50;;;;;;;1.10;1.00;;;8.50;99.90;;;;;;5051152;28;20203;-80
2023/11/21 02:03:18;;;;;;;0.75;0.75;;;8.50;99.90;;;;;;5056353;28;20191;-80
2023/11/21 02:05:45;;;;;;;0.47;0.40;;;8.50;99.90;;;;;;5041484;28;20575;-81
2023/11/21 02:08:12;;;;;;;0.47;0.40;;;8.50;99.90;;;;;;5036659;28;20224;-80
2023/11/21 02:10:40;;;;;;;0.40;0.40;;;8.50;99.90;;;;;;5051983;28;20222;-79
2023/11/21 02:13:07;;;;;;;1.40;1.30;;;8.50;99.90;;;;;;5044128;28;20567;-80
2023/11/21 02:15:34;;;;;;;0.80;0.80;;;8.50;99.90;;;;;;5054788;28;20191;-81
2023/11/21 02:18:02;;;;;;;0.50;0.40;;;8.50;99.90;;;;;;5056477;28;20243;-79
2023/11/21 02:20:31;;;;;;;0.40;0.40;;;8.50;99.90;;;;;;5047530;28;20642;-81
2023/11/21 02:22:59;;;;;;;1.50;1.40;;;8.50;99.90;;;;;;5054056;28;20198;-80
2023/11/21 02:25:27;;;;;;;0.50;0.40;;;8.50;99.90;;;;;;5051165;28;20205;-80
2023/11/21 02:27:54;;;;;;;0.40;0.40;;;8.50;99.90;;;;;;5040616;28;20218;-80
2023/11/21 02:30:21;;;;;;;0.93;0.93;;;8.50;99.90;;;;;;5054150;28;20191;-80
2023/11/21 02:32:49;;;;;;;0.40;0.40;;;8.50;99.90;;;;;;5054999;28;20191;-81
2023/11/21 02:35:16;;;;;;;1.20;1.20;;;8.50;99.90;;;;;;5053560;28;20206;-81
2023/11/21 02:37:43;;;;;;;0.40;0.40;;;8.50;99.90;;;;;;5039656;28;20219;-79
2023/11/21 02:40:13;;;;;;;0.40;0.40;;;8.50;99.90;;;;;;5054514;28;20199;-80
2023/11/21 02:42:40;;;;;;;0.40;0.40;;;8.50;99.90;;;;;;5041796;28;20203;-80
2023/11/21 02:45:09;;;;;;;0.40;0.40;;;8.50;99.90;;;;;;5041642;28;20677;-80
2023/11/21 02:47:35;;;;;;;0.50;0.50;;;8.50;99.90;;;;;;5025715;28;20657;-80
2023/11/21 02:50:03;;;;;;;0.40;0.40;;;8.50;99.90;;;;;;5040925;28;20199;-78
2023/11/21 02:52:29;;;;;;;0.40;0.40;;;8.40;99.90;;;;;;5042941;28;20254;-80
2023/11/21 02:54:56;;;;;;;0.40;0.40;;;8.40;99.90;;;;;;5040271;28;20198;-81
2023/11/21 02:57:24;;;;;;;0.40;0.40;;;8.40;99.90;;;;;;5044346;28;20561;-80
2023/11/21 02:59:51;;;;;;;0.40;0.40;;;8.40;99.90;;;;;;5039849;28;20191;-80
2023/11/21 03:02:18;;;;;;;0.50;0.50;;;8.40;99.90;;;;;;5053738;28;20195;-80
2023/11/21 03:04:45;;;;;;;0.50;0.40;;;8.50;99.90;;;;;;5054364;28;20196;-80
2023/11/21 03:07:11;;;;;;;1.95;1.85;;;8.40;99.90;;;;;;5045719;28;20224;-80
2023/11/21 03:09:38;;;;;;;0.50;0.40;;;8.40;99.90;;;;;;5026395;28;20199;-80
2023/11/21 03:12:06;;;;;;;0.45;0.40;;;8.40;99.90;;;;;;5041397;28;20199;-80
2023/11/21 03:14:34;;;;;;;0.50;0.40;;;8.50;99.90;;;;;;5045471;28;20462;-81
2023/11/21 03:17:01;;;;;;;0.50;0.40;;;8.50;99.90;;;;;;5038754;28;20228;-79
2023/11/21 03:19:28;;;;;;;0.47;0.40;;;8.50;99.90;;;;;;5052061;28;20202;-81
2023/11/21 03:21:55;;;;;;;0.47;0.40;;;8.50;99.90;;;;;;5053760;28;20199;-80
2023/11/21 03:24:22;;;;;;;0.50;0.40;;;8.50;99.90;;;;;;5044874;28;20196;-80
2023/11/21 03:26:50;;;;;;;0.60;0.60;;;8.50;99.90;;;;;;5045655;28;20242;-80
2023/11/21 03:29:16;;;;;;;0.50;0.40;;;8.50;99.90;;;;;;5055880;28;20215;-80
2023/11/21 03:31:44;;;;;;;0.50;0.40;;;8.50;99.90;;;;;;5036580;28;20196;-80
2023/11/21 03:34:16;;;;;;;0.43;0.40;;;8.40;99.90;;;;;;5036606;28;20196;-78
2023/11/21 03:36:46;;;;;;;0.50;0.50;;;8.40;99.90;;;;;;5028698;28;20219;-79
2023/11/21 03:39:13;;;;;;;0.40;0.40;;;8.40;99.90;;;;;;5036592;28;20184;-80
2023/11/21 03:41:39;;;;;;;0.50;0.50;;;8.40;99.90;;;;;;5044851;28;20193;-81
2023/11/21 03:44:06;;;;;;;0.52;0.50;;;8.40;99.90;;;;;;5036695;28;20552;-79
2023/11/21 03:46:33;;;;;;;2.22;2.10;;;8.40;99.90;;;;;;5035953;28;20224;-80
2023/11/21 03:49:01;;;;;;;0.50;0.40;;;8.40;99.90;;;;;;5051245;28;20221;-80
2023/11/21 03:51:28;;;;;;;0.50;0.40;;;8.40;99.90;;;;;;5046468;28;20203;-81
2023/11/21 03:53:55;;;;;;;0.50;0.40;;;8.40;99.90;;;;;;5041813;28;20675;-80
2023/11/21 03:56:22;;;;;;;0.40;0.40;;;8.40;99.90;;;;;;5046923;28;20211;-81
2023/11/21 03:58:49;;;;;;;0.50;0.40;;;8.40;99.90;;;;;;5048862;28;20194;-79
2023/11/21 04:01:22;;;;;;;0.50;0.40;;;8.40;99.90;;;;;;5047527;28;20195;-80
2023/11/21 04:03:49;;;;;;;0.47;0.40;;;8.40;99.90;;;;;;5029069;28;20253;-81
2023/11/21 04:06:18;;;;;;;0.50;0.40;;;8.40;99.90;;;;;;5035896;28;20192;-80
2023/11/21 04:08:45;;;;;;;0.47;0.40;;;8.40;99.90;;;;;;5028000;28;20231;-80
2023/11/21 04:11:12;;;;;;;0.50;0.40;;;8.40;99.90;;;;;;5035700;28;20195;-81
2023/11/21 04:13:39;;;;;;;0.50;0.40;;;8.40;99.90;;;;;;5035485;28;20199;-79
2023/11/21 04:16:07;;;;;;;0.50;0.40;;;8.40;99.90;;;;;;5041340;28;20195;-80
2023/11/21 04:18:34;;;;;;;0.40;0.40;;;8.30;99.90;;;;;;5055326;28;20533;-79
2023/11/21 04:21:00;;;;;;;0.50;0.40;;;8.30;99.90;;;;;;5055135;28;20198;-80
2023/11/21 04:23:30;;;;;;;0.40;0.40;;;8.40;99.90;;;;;;5055705;28;20191;-81
2023/11/21 04:25:57;;;;;;;6.03;1.77;;;8.40;99.90;;;;;;5041721;28;20541;-79
2023/11/21 04:28:24;;;;;;;0.40;0.40;;;8.40;99.90;;;;;;5043671;28;20229;-79
2023/11/21 04:30:51;;;;;;;0.40;0.40;;;8.40;99.90;;;;;;5050641;28;20196;-80
2023/11/21 04:33:17;;;;;;;0.50;0.40;;;8.40;99.90;;;;;;5051535;28;20218;-78
2023/11/21 04:35:44;;;;;;;0.40;0.30;;;8.40;99.90;;;;;;5054980;28;20201;-80
2023/11/21 04:38:11;;;;;;;0.40;0.40;;;8.40;99.90;;;;;;5054486;28;20261;-79
2023/11/21 04:40:39;;;;;;;0.40;0.40;;;8.50;99.90;;;;;;5043887;28;20437;-80
2023/11/21 04:43:06;;;;;;;0.50;0.40;;;8.50;99.90;;;;;;5035132;28;20199;-78
2023/11/21 04:45:33;;;;;;;0.40;0.40;;;8.60;99.90;;;;;;5034727;28;20207;-80
2023/11/21 04:48:00;;;;;;;0.45;0.40;;;8.60;99.90;;;;;;5035374;28;20216;-78
2023/11/21 04:50:27;;;;;;;0.40;0.40;;;8.60;99.90;;;;;;5053009;28;20544;-80
2023/11/21 04:52:54;;;;;;;2.35;2.25;;;8.60;99.90;;;;;;5054569;28;20442;-79
2023/11/21 04:55:21;;;;;;;0.50;0.40;;;8.60;99.90;;;;;;5054543;28;20194;-81
2023/11/21 04:57:49;;;;;;;0.50;0.40;;;8.60;99.90;;;;;;5027214;28;20706;-79
2023/11/21 05:00:16;;;;;;;0.50;0.40;;;8.60;99.90;;;;;;5050188;28;20187;-80
2023/11/21 05:02:44;;;;;;;0.45;0.40;;;8.50;99.90;;;;;;5053778;28;20199;-79
2023/11/21 05:05:11;;;;;;;1.20;1.20;;;8.50;99.90;;;;;;5053425;28;20199;-79
2023/11/21 05:07:38;;;;;;;0.40;0.30;;;8.50;99.90;;;;;;5053556;28;20222;-80
2023/11/21 05:10:11;;;;;;;1.20;1.10;;;8.50;99.90;;;;;;5053708;28;20191;-78
2023/11/21 05:12:38;;;;;;;0.50;0.40;;;8.50;99.90;;;;;;5043540;28;20595;-78
2023/11/21 05:15:09;;;;;;;0.50;0.40;;;8.50;99.90;;;;;;5033364;28;20199;-78
2023/11/21 05:17:36;;;;;;;0.50;0.50;;;8.50;99.90;;;;;;5051708;28;20237;-78
2023/11/21 05:20:08;;;;;;;3.17;3.00;;;8.40;99.90;;;;;;5045135;28;20690;-79
2023/11/21 05:22:34;;;;;;;0.45;0.40;;;8.40;99.90;;;;;;5021024;28;20201;-80
2023/11/21 05:25:02;;;;;;;0.50;0.40;;;8.40;99.90;;;;;;5043632;28;20194;-78
2023/11/21 05:27:29;;;;;;;1.58;1.25;;;8.40;99.90;;;;;;5033491;28;20222;-79
2023/11/21 05:29:56;;;;;;;1.45;1.40;;;8.40;99.90;;;;;;5037394;28;20212;-78
2023/11/21 05:32:24;;;;;;;0.50;0.40;;;8.30;99.90;;;;;;5053238;28;20191;-80
2023/11/21 05:34:51;;;;;;;0.50;0.40;;;8.20;99.90;;;;;;5050113;28;20299;-79
2023/11/21 05:37:18;;;;;;;0.50;0.40;;;8.20;99.90;;;;;;5033227;28;20270;-79
2023/11/21 05:39:45;;;;;;;0.50;0.40;;;8.20;99.90;;;;;;5041966;28;20668;-81
2023/11/21 05:42:12;;;;;;;0.50;0.40;;;8.20;99.90;;;;;;5039857;28;20566;-80
2023/11/21 05:44:43;;;;;;;2.35;0.80;;;8.10;99.90;;;;;;5053527;28;20689;-80
2023/11/21 05:47:09;;;;;;;0.90;0.90;;;8.10;99.90;;;;;;5047894;28;20590;-79
2023/11/21 05:49:38;;;;;;;0.40;0.40;;;8.10;99.90;;;;;;5043565;28;20211;-81
2023/11/21 05:52:06;;;;;;;0.40;0.40;;;8.10;99.90;;;;;;5048912;28;20196;-80
2023/11/21 05:54:33;;;;;;;0.50;0.40;;;8.10;99.90;;;;;;5036038;28;20200;-79
2023/11/21 05:57:00;;;;;;;0.43;0.40;;;8.10;99.90;;;;;;5053426;28;20281;-80
2023/11/21 05:59:27;;;;;;;3.55;3.35;;;8.10;99.90;;;;;;5053314;28;20191;-81
2023/11/21 06:01:54;;;;;;;0.50;0.40;;;8.10;99.90;;;;;;5036664;28;20191;-81
2023/11/21 06:04:23;;;;;;;1.15;1.05;;;8.20;99.90;;;;;;5037365;28;20188;-79
2023/11/21 06:06:52;;;;;;;0.40;0.40;;;8.20;99.90;;;;;;5040523;28;20226;-81
2023/11/21 06:09:18;;;;;;;1.55;1.45;;;8.20;99.90;;;;;;5041806;28;20207;-80
2023/11/21 06:11:45;;;;;;;1.85;1.67;;;8.20;99.90;;;;;;5034927;28;20283;-81
2023/11/21 06:14:12;;;;;;;0.40;0.40;;;8.20;99.90;;;;;;5033696;28;20192;-79
2023/11/21 06:16:40;;;;;;;4.95;1.95;;;8.30;99.90;;;;;;5041786;28;20237;-80
2023/11/21 06:19:07;;;;;;;0.50;0.40;;;8.30;99.90;;;;;;5047210;28;20202;-79
2023/11/21 06:21:33;;;;;;;0.80;0.80;;;8.20;99.90;;;;;;5053280;28;20673;-81
2023/11/21 06:24:02;;;;;;;0.40;0.40;;;8.20;99.90;;;;;;5048835;28;20192;-81
2023/11/21 06:26:28;;;;;;;0.45;0.40;;;8.20;99.90;;;;;;5042045;28;20653;-81
2023/11/21 06:28:56;;;;;;;0.40;0.40;;;8.30;99.90;;;;;;5044990;28;20225;-81
2023/11/21 06:31:23;;;;;;;0.88;0.88;;;8.30;99.90;;;;;;5053176;28;20226;-81
2023/11/21 06:33:51;;;;;;;0.63;0.60;;;8.30;99.90;;;;;;5055568;28;20570;-81
2023/11/21 06:36:18;;;;;;;0.40;0.40;;;8.30;99.90;;;;;;5039762;28;20254;-81
2023/11/21 06:38:46;;;;;;;0.40;0.40;;;8.20;99.90;;;;;;5042569;28;20279;-79
2023/11/21 06:41:15;;;;;;;0.50;0.40;;;8.20;99.90;;;;;;5034999;28;20199;-81
2023/11/21 06:43:46;;;;;;;0.50;0.40;;;8.20;99.90;;;;;;5045174;28;20227;-81
2023/11/21 06:46:14;;;;;;;0.40;0.40;;;8.20;99.90;;;;;;5048995;28;20199;-81
2023/11/21 06:48:41;;;;;;;0.50;0.40;;;8.20;99.90;;;;;;5043771;28;20219;-81
2023/11/21 06:51:08;;;;;;;0.85;0.85;;;8.20;99.90;;;;;;5036083;28;20195;-79
2023/11/21 06:53:36;;;;;;;0.40;0.40;;;8.20;99.90;;;;;;5037150;28;20267;-81
2023/11/21 06:56:03;;;;;;;0.40;0.40;;;8.20;99.90;;;;;;5037657;28;20291;-81
2023/11/21 06:58:31;;;;;;;0.40;0.40;;;8.20;99.90;;;;;;5036506;28;20227;-81
2023/11/21 07:00:58;;;;;;;1.02;0.70;;;8.30;99.90;;;;;;5039023;28;20191;-81
2023/11/21 07:03:26;;;;;;;0.43;0.40;;;8.30;99.90;;;;;;5051678;28;20196;-81
2023/11/21 07:05:53;;;;;;;0.40;0.40;;;8.30;99.90;;;;;;5057677;28;20249;-81
2023/11/21 07:08:19;;;;;;;1.63;1.52;;;8.30;99.90;;;;;;5051965;28;20283;-81
2023/11/21 07:10:47;;;;;;;0.40;0.40;;;8.40;99.90;;;;;;5038245;28;20292;-81
2023/11/21 07:13:13;;;;;;;0.40;0.40;;;8.40;99.90;;;;;;5040155;28;20192;-79
2023/11/21 07:15:42;;;;;;;2.45;2.25;;;8.40;99.90;;;;;;5056664;28;20231;-81
2023/11/21 07:18:10;;;;;;;2.17;2.08;;;8.40;99.90;;;;;;5057274;28;20227;-81
2023/11/21 07:20:38;;;;;;;0.40;0.40;;;8.50;99.90;;;;;;5040528;28;20199;-80
2023/11/21 07:23:05;;;;;;;0.40;0.40;;;8.50;99.90;;;;;;5041359;28;20195;-81
2023/11/21 07:25:33;;;;;;;1.92;1.83;;;8.60;99.90;;;;;;5040764;28;20200;-81
2023/11/21 07:28:00;;;;;;;0.50;0.50;;;8.60;99.90;;;;;;5040940;28;20219;-80
2023/11/21 07:30:27;;;;;;;1.50;1.35;;;8.60;99.90;;;;;;5056910;28;20586;-80
2023/11/21 07:32:55;;;;;;;1.85;1.75;;;8.60;99.90;;;;;;5045251;28;20211;-80
2023/11/21 07:35:22;;;;;;;3.25;2.95;;;8.60;99.90;;;;;;5036475;28;20295;-80
2023/11/21 07:37:49;;;;;;;0.50;0.40;;;8.70;99.90;;;;;;5047195;28;20216;-79
2023/11/21 07:40:16;;;;;;;1.08;1.08;;;8.70;99.90;;;;;;5042852;28;20196;-81
2023/11/21 07:42:43;;;;;;;0.43;0.40;;;8.70;99.90;;;;;;5044790;28;20191;-80
2023/11/21 07:45:11;;;;;;;1.95;1.85;;;8.70;99.90;;;;;;5046531;28;20195;-79
2023/11/21 07:47:38;;;;;;;6.40;3.33;;;8.70;99.90;;;;;;5065279;28;20222;-80
2023/11/21 07:50:08;;;;;;;0.50;0.40;;;8.70;99.90;;;;;;5058785;28;20211;-81
2023/11/21 07:52:35;;;;;;;0.50;0.50;;;8.70;99.90;;;;;;5050685;28;20203;-81
2023/11/21 07:55:02;;;;;;;0.50;0.50;;;8.80;99.90;;;;;;5049973;28;20195;-82
2023/11/21 07:57:29;;;;;;;0.40;0.40;;;8.80;99.90;;;;;;5058040;28;20222;-81
2023/11/21 07:59:56;;;;;;;0.50;0.40;;;8.90;99.90;;;;;;5057952;28;20214;-81
2023/11/21 08:02:22;;;;;;;2.08;1.98;;;8.90;99.90;;;;;;5053420;28;20192;-81
2023/11/21 08:04:50;;;;;;;4.40;2.08;;;9.00;99.90;;;;;;5054043;28;20613;-80
2023/11/21 08:07:18;;;;;;;5.57;4.38;;;9.00;99.90;;;;;;5055577;28;20698;-80
2023/11/21 08:09:46;;;;;;;0.50;0.40;;;9.10;99.90;;;;;;5038880;28;20227;-80
2023/11/21 08:12:14;;;;;;;0.40;0.40;;;9.20;99.90;;;;;;5036026;28;20206;-81
2023/11/21 08:14:41;;;;;;;2.30;2.20;;;9.30;99.90;;;;;;5051727;28;20226;-81
2023/11/21 08:17:10;;;;;;;0.40;0.40;;;9.30;99.90;;;;;;5047618;28;20685;-81
2023/11/21 08:19:37;;;;;;;0.50;0.50;;;9.20;99.90;;;;;;5055888;28;20507;-81
2023/11/21 08:22:04;;;;;;;2.00;1.90;;;9.20;99.90;;;;;;5035783;28;20670;-79
2023/11/21 08:24:32;;;;;;;0.88;0.88;;;9.20;99.90;;;;;;5036062;28;20206;-81
2023/11/21 08:26:59;;;;;;;1.88;1.80;;;9.20;99.90;;;;;;5044508;28;20310;-82
2023/11/21 08:29:26;;;;;;;3.60;3.05;;;9.20;99.90;;;;;;5050622;28;20215;-80
2023/11/21 08:31:53;;;;;;;1.88;1.77;;;9.20;99.90;;;;;;5045981;28;20745;-81
2023/11/21 08:34:20;;;;;;;5.27;4.97;;;9.20;99.90;;;;;;5036853;28;20551;-81
2023/11/21 08:36:47;;;;;;;0.50;0.40;;;9.20;99.90;;;;;;5045452;28;20457;-81
2023/11/21 08:39:16;;;;;;;0.50;0.40;;;9.20;99.90;;;;;;5035927;28;20187;-81
2023/11/21 08:41:44;;;;;;;0.43;0.40;;;9.20;99.90;;;;;;5043987;28;20226;-79
2023/11/21 08:44:11;;;;;;;0.52;0.40;;;9.20;99.90;;;;;;5039629;28;20305;-80
2023/11/21 08:46:39;;;;;;;0.45;0.40;;;9.20;99.90;;;;;;5047267;28;20212;-81
2023/11/21 08:49:06;;;;;;;0.50;0.40;;;9.20;99.90;;;;;;5051550;28;20258;-79
2023/11/21 08:51:33;;;;;;;0.40;0.40;;;9.20;99.90;;;;;;5043438;28;20282;-81
2023/11/21 08:54:04;;;;;;;0.75;0.73;;;9.20;99.90;;;;;;5052206;28;20246;-80
2023/11/21 08:56:31;;;;;;;0.50;0.50;;;9.30;99.90;;;;;;5040901;28;20709;-80
2023/11/21 08:59:00;;;;;;;39.63;3.70;;;9.30;99.90;;;;;;5044470;28;20533;-80
2023/11/21 09:01:27;;;;;;;0.40;0.30;;;9.30;99.90;;;;;;5040964;28;20222;-80
2023/11/21 09:03:54;;;;;;;0.70;0.43;;;9.20;99.90;;;;;;5053012;28;20191;-80
2023/11/21 09:06:21;;;;;;;1.23;1.17;;;9.20;99.90;;;;;;5048892;28;20187;-79
2023/11/21 09:08:47;;;;;;;0.50;0.40;;;9.30;99.90;;;;;;5055869;28;20508;-80
2023/11/21 09:11:14;;;;;;;0.70;0.70;;;9.30;99.90;;;;;;5039352;28;20211;-80
2023/11/21 09:13:41;;;;;;;0.40;0.40;;;9.30;99.90;;;;;;5054621;28;20626;-79
2023/11/21 09:16:10;;;;;;;0.40;0.40;;;9.30;99.90;;;;;;5045719;28;20873;-80
2023/11/21 09:18:37;;;;;;;0.40;0.40;;;9.40;99.90;;;;;;5040279;28;20196;-80
2023/11/21 09:21:05;;;;;;;0.40;0.40;;;9.50;99.90;;;;;;5045588;28;20191;-80
2023/11/21 09:23:31;;;;;;;0.50;0.40;;;9.60;99.90;;;;;;5054964;28;20445;-80
2023/11/21 09:26:00;;;;;;;0.40;0.40;;;9.70;99.90;;;;;;5052111;28;20452;-80
2023/11/21 09:28:27;;;;;;;0.50;0.50;;;9.70;99.90;;;;;;5043539;28;20211;-80
2023/11/21 09:30:54;;;;;;;1.50;1.42;;;9.80;99.90;;;;;;5034591;28;20486;-81
2023/11/21 09:33:24;;;;;;;0.50;0.40;;;9.80;99.90;;;;;;5041148;28;20187;-80
2023/11/21 09:35:52;;;;;;;2.70;2.50;;;9.80;99.90;;;;;;5046635;28;20195;-80
2023/11/21 09:38:19;;;;;;;0.50;0.40;;;9.90;99.90;;;;;;5054152;28;20211;-79
2023/11/21 09:40:46;;;;;;;0.50;0.40;;;9.90;99.90;;;;;;5054093;28;20227;-80
2023/11/21 09:43:17;;;;;;;0.50;0.40;;;9.90;99.90;;;;;;5029838;28;20191;-79
2023/11/21 09:45:47;;;;;;;1.60;1.50;;;9.80;99.90;;;;;;5055192;28;20438;-81
2023/11/21 09:48:16;;;;;;;1.90;1.80;;;9.80;99.90;;;;;;5042818;28;20294;-79
2023/11/21 09:50:44;;;;;;;3.65;2.17;;;9.90;99.90;;;;;;5044245;28;20218;-81
2023/11/21 09:53:18;;;;;;;0.50;0.40;;;9.80;99.90;;;;;;5061647;28;20195;-80
2023/11/21 09:55:47;;;;;;;3.63;1.47;;;9.80;99.90;;;;;;5061096;28;20450;-81
2023/11/21 09:58:14;;;;;;;1.73;1.73;;;9.80;99.90;;;;;;5052065;28;20540;-80
2023/11/21 10:00:42;;;;;;;11.83;11.33;;;9.80;99.90;;;;;;5050336;28;20246;-80
2023/11/21 10:03:09;;;;;;;0.57;0.53;;;9.80;99.90;;;;;;5054823;28;20462;-80
2023/11/21 10:05:36;;;;;;;3.13;1.25;;;9.90;99.90;;;;;;5048276;28;20518;-81
2023/11/21 10:08:09;;;;;;;1.80;1.70;;;9.90;99.90;;;;;;5051093;28;20613;-80
2023/11/21 10:10:37;;;;;;;0.50;0.40;;;9.90;99.90;;;;;;5049181;28;20469;-79
2023/11/21 10:13:06;;;;;;;0.50;0.50;;;10.00;99.90;;;;;;5043884;28;20202;-80
2023/11/21 10:15:35;;;;;;;0.50;0.50;;;10.10;99.90;;;;;;5034805;28;20449;-80
2023/11/21 10:18:04;;;;;;;0.43;0.40;;;10.20;99.90;;;;;;5042561;28;20461;-80
2023/11/21 10:20:33;;;;;;;0.63;0.40;;;10.40;99.90;;;;;;5047386;28;20429;-79
2023/11/21 10:23:01;;;;;;;0.50;0.40;;;10.50;99.90;;;;;;5053147;28;20449;-80
2023/11/21 10:25:30;;;;;;;0.40;0.40;;;10.50;99.90;;;;;;5050199;28;20443;-77
2023/11/21 10:28:00;;;;;;;0.50;0.40;;;10.70;99.90;;;;;;5043569;28;20458;-79
2023/11/21 10:30:29;;;;;;;2.53;2.43;;;10.80;99.90;;;;;;5033782;28;20478;-80
2023/11/21 10:33:01;;;;;;;1.90;1.80;;;10.90;99.90;;;;;;5032670;28;20533;-80
2023/11/21 10:35:40;;;;;;;2.87;2.40;;;11.00;99.90;;;;;;5037579;28;20940;-80
2023/11/21 10:38:09;;;;;;;0.50;0.40;;;11.10;99.90;;;;;;5045728;28;20466;-77
2023/11/21 10:40:41;;;;;;;0.50;0.40;;;11.00;99.90;;;;;;5045245;28;20458;-80
2023/11/21 10:43:09;;;;;;;3.57;3.27;;;11.00;99.90;;;;;;5047237;28;20441;-80
2023/11/21 10:45:37;;;;;;;0.50;0.40;;;11.10;99.90;;;;;;5056768;28;20452;-80
2023/11/21 10:48:07;;;;;;;0.50;0.40;;;11.10;99.90;;;;;;5048242;28;20453;-79
2023/11/21 10:50:35;;;;;;;1.47;1.37;;;11.10;99.90;;;;;;5042589;28;20482;-80
2023/11/21 10:53:03;;;;;;;0.50;0.50;;;11.10;99.90;;;;;;5037198;28;20446;-80
2023/11/21 10:55:31;;;;;;;0.50;0.40;;;11.10;99.90;;;;;;5042862;28;20481;-80
2023/11/21 10:58:01;;;;;;;0.57;0.57;;;11.20;99.90;;;;;;5053013;28;20461;-80
2023/11/21 11:00:29;;;;;;;0.50;0.40;;;11.20;99.90;;;;;;5049333;28;20521;-79
2023/11/21 11:02:56;;;;;;;5.50;4.53;;;11.30;99.90;;;;;;5056484;28;20440;-79
2023/11/21 11:05:25;;;;;;;0.93;0.93;;;11.30;99.90;;;;;;5036725;28;20625;-80
2023/11/21 11:07:59;;;;;;;0.50;0.40;;;11.40;99.90;;;;;;5044271;28;20493;-80
2023/11/21 11:10:27;;;;;;;0.50;0.40;;;11.40;99.90;;;;;;5033769;28;20548;-80
2023/11/21 11:12:55;;;;;;;0.50;0.30;;;11.50;99.90;;;;;;5056981;28;20446;-80
2023/11/21 11:15:23;;;;;;;1.07;1.07;;;11.70;99.90;;;;;;5048249;28;20437;-80
2023/11/21 11:17:51;;;;;;;0.50;0.50;;;11.80;99.90;;;;;;5048266;28;20468;-80
2023/11/21 11:20:20;;;;;;;0.50;0.40;;;11.90;99.90;;;;;;5047411;28;20801;-80
2023/11/21 11:22:58;;;;;;;0.50;0.40;;;12.10;99.90;;;;;;5048908;28;20446;-81
2023/11/21 11:25:38;;;;;;;2.57;2.47;;;12.20;99.90;;;;;;5040617;28;20805;-81
2023/11/21 11:28:09;;;;;;;3.10;3.00;;;12.30;99.90;;;;;;5046918;28;20468;-80
2023/11/21 11:30:51;;;;;;;0.90;0.90;;;12.30;99.90;;;;;;5045131;28;20497;-79
2023/11/21 11:33:27;;;;;;;0.80;0.80;;;12.30;99.90;;;;;;5061608;28;20458;-79
2023/11/21 11:36:02;;;;;;;0.57;0.40;;;12.30;99.90;;;;;;5062597;28;20427;-80
2023/11/21 11:38:33;;;;;;;0.50;0.40;;;12.20;99.90;;;;;;5042260;28;20892;-79
2023/11/21 11:41:03;;;;;;;0.50;0.40;;;12.00;99.90;;;;;;5055264;28;20449;-79
2023/11/21 11:43:32;;;;;;;0.87;0.87;;;11.90;99.90;;;;;;5042642;28;20525;-81
2023/11/21 11:46:04;;;;;;;0.90;0.90;;;11.90;99.90;;;;;;5043511;28;20433;-80
2023/11/21 11:48:35;;;;;;;0.50;0.40;;;11.80;99.90;;;;;;5027805;28;20434;-77
2023/11/21 11:51:04;;;;;;;0.50;0.40;;;11.50;99.90;;;;;;5044152;28;20470;-79
2023/11/21 11:53:37;;;;;;;0.50;0.40;;;11.40;99.90;;;;;;5047030;28;20446;-80
2023/11/21 11:56:34;;;;;;;0.50;0.40;;;11.40;99.90;;;;;;5046938;28;20438;-80
2023/11/21 11:59:03;;;;;;;0.50;0.33;;;11.40;99.90;;;;;;5010319;28;20817;-81
2023/11/21 12:01:33;;;;;;;0.50;0.40;;;11.40;99.90;;;;;;5047856;28;20541;-80
2023/11/21 12:04:30;;;;;;;0.50;0.30;;;11.40;99.90;;;;;;5043903;28;20439;-79
2023/11/21 12:06:59;;;;;;;0.50;0.40;;;11.50;99.90;;;;;;5062251;28;20969;-80
2023/11/21 12:09:27;;;;;;;0.60;0.60;;;11.40;99.90;;;;;;5054822;28;20814;-80
2023/11/21 12:11:56;;;;;;;0.50;0.40;;;11.50;99.90;;;;;;5045627;28;20473;-82
2023/11/21 12:14:24;;;;;;;0.50;0.40;;;11.40;99.90;;;;;;5038892;28;20434;-81
2023/11/21 12:16:52;;;;;;;0.50;0.40;;;11.40;99.90;;;;;;5038626;28;20478;-81
2023/11/21 12:19:20;;;;;;;0.50;0.40;;;11.40;99.90;;;;;;5037201;28;20438;-80
2023/11/21 12:21:48;;;;;;;0.50;0.33;;;11.30;99.90;;;;;;5037529;28;20434;-80
2023/11/21 12:24:16;;;;;;;0.50;0.40;;;11.30;99.90;;;;;;5037810;28;20929;-80
2023/11/21 12:26:43;;;;;;;0.50;0.40;;;11.30;99.90;;;;;;5037077;28;20458;-80
2023/11/21 12:29:10;;;;;;;0.50;0.40;;;11.30;99.90;;;;;;5046430;28;20433;-78
2023/11/21 12:31:37;;;;;;;4.20;1.40;;;11.20;99.90;;;;;;5057761;28;20478;-80
2023/11/21 12:34:06;;;;;;;1.00;0.90;;;11.20;99.90;;;;;;5040235;28;20542;-79
2023/11/21 12:36:34;;;;;;;2.00;1.90;;;11.20;99.90;;;;;;5038220;28;20463;-81
2023/11/21 12:39:02;;;;;;;0.77;0.77;;;11.10;99.90;;;;;;5037000;28;20438;-82
2023/11/21 12:41:30;;;;;;;0.50;0.40;;;11.00;99.90;;;;;;5056843;28;20480;-80
2023/11/21 12:43:57;;;;;;;0.50;0.40;;;10.90;99.90;;;;;;5041994;28;20445;-80
2023/11/21 12:46:25;;;;;;;0.50;0.40;;;10.90;99.90;;;;;;5047846;28;20442;-81
2023/11/21 12:48:52;;;;;;;0.50;0.40;;;10.80;99.90;;;;;;5049374;28;20449;-81
2023/11/21 12:51:22;;;;;;;0.50;0.40;;;10.80;99.90;;;;;;5048273;28;20483;-80
2023/11/21 12:53:49;;;;;;;0.70;0.70;;;10.70;99.90;;;;;;5056316;28;20436;-81
2023/11/21 12:56:17;;;;;;;1.43;1.33;;;10.60;99.90;;;;;;5047074;28;20439;-83
2023/11/21 12:58:46;;;;;;;0.50;0.40;;;10.60;99.90;;;;;;5039414;28;20442;-80